Upper Allen, Pennsylvania
Current Conditions -  °F | °C
As of 8:18 PM on Thursday 18 Dec 2014 (Local Time) from KCXY Reporting Station
Overcast Overcast  
Wind Chill: -2°   Ceiling: 2900
Heat Index:   Visibility: 10mi
Dew Point: -4°   Wind: 9mph
Humidity: 64%   Direction: 300°WNW
Pressure: 30.09"   Gusts: NA
Location:  40.208°N, 77.0098°W
Report Text: KCXY 190118Z 30008KT 10SM OVC029 02/M04 A3009 RMK AO2 T00171044
Loading
Personal Weather Stations






























Interactive Weather Map New forecast layout! Learn more

10-Day Weather Forecast

Advertisements
Track Severe Weather on mobile